Terminal Aerodrome Forecast
Issued by NWS

Home | Current Version | Previous Version | Text Only | Print | Product List | Glossary On
Versions: 1 2 3 4 5 6 7 8 9 10 11 12 13 14 15 16 17 18 19 20 21 22 23 24 25 26 27 28 29 30 31
000
FTUS42 KGSP 011133
TAFHKY
TAF
KHKY 011133Z 0112/0212 32003KT 6SM BR FEW080
      TEMPO 0112/0114 3SM BR
     FM011600 04003KT P6SM SCT070
     FM012000 08004KT P6SM BKN080
     FM020200 00000KT P6SM SCT090
     FM020800 00000KT 3SM BR FEW010 SCT100=

USA.gov is the U.S. government's official web portal to all federal, state and local government web resources and services.